Terminal Aerodrome Forecast
Issued by NWS Duluth, MN

Home | Current Version | Previous Version | Text Only | Print | Product List | Glossary On
Versions: 1 2 3 4 5 6 7 8 9 10 11 12 13 14 15 16 17 18 19 20 21 22 23
000
FTUS43 KDLH 240500 AAA
TAFINL
TAF AMD
KINL 240522Z 2405/2424 33005KT 3SM -SN OVC003
     FM240800 34012G20KT 3SM -FZDZSN BLSN BKN009 OVC015
     FM241500 34016G25KT 5SM -SN BLSN OVC020
     FM242300 32012KT P6SM BKN025=

USA.gov is the U.S. government's official web portal to all federal, state and local government web resources and services.